Nutley, New Jersey
Current Conditions -  °F | °C
As of 2:51 AM on Monday 26 Jan 2015 (Local Time) from KTEB Reporting Station
Overcast Overcast  
Wind Chill: 16°   Ceiling: 5500
Heat Index: 25°   Visibility: 10mi
Dew Point:   Wind: 8mph
Humidity: 41%   Direction: 30°NNE
Pressure: 30.02"   Gusts: NA
Location:  40.82°N, 74.16°W
Report Text: KTEB 260751Z 03007KT 10SM OVC055 M04/M16 A3002 RMK AO2 SLP167 T10391156 $
Loading
Personal Weather Stations






























Interactive Weather Map New forecast layout! Learn more

10-Day Weather Forecast

Advertisements
Track Severe Weather on mobile